createdAt,value
2019-02-22T00:01:18.351Z,54.10
2019-02-22T00:03:49.055Z,54.20
2019-02-22T00:06:19.639Z,54.00
2019-02-22T00:08:50.359Z,54.00
2019-02-22T00:11:20.935Z,54.00
2019-02-22T00:13:51.537Z,54.10
2019-02-22T00:16:22.002Z,54.00
2019-02-22T00:18:52.762Z,54.00
2019-02-22T00:21:23.436Z,54.10
2019-02-22T00:23:54.164Z,54.00
2019-02-22T00:26:24.738Z,54.00
2019-02-22T00:28:55.400Z,54.00
2019-02-22T00:31:26.211Z,54.10
2019-02-22T00:33:56.787Z,54.10
2019-02-22T00:36:27.382Z,54.00
2019-02-22T00:38:57.860Z,54.00
2019-02-22T00:41:28.645Z,54.10
2019-02-22T00:43:59.312Z,54.00
2019-02-22T00:46:30.045Z,54.00
2019-02-22T00:49:00.729Z,54.00
2019-02-22T00:51:31.372Z,54.00
2019-02-22T00:54:01.974Z,54.00
2019-02-22T00:56:32.566Z,54.00
2019-02-22T00:59:03.004Z,54.00
2019-02-22T01:01:33.617Z,53.90
2019-02-22T01:04:04.120Z,54.00
2019-02-22T01:06:34.833Z,54.00
2019-02-22T01:09:05.727Z,54.00
2019-02-22T01:11:36.239Z,54.00
2019-02-22T01:14:06.840Z,54.00
2019-02-22T01:16:37.518Z,53.90
2019-02-22T01:19:08.233Z,54.00
2019-02-22T01:21:38.806Z,54.00
2019-02-22T01:24:09.616Z,54.00
2019-02-22T01:26:40.210Z,54.00
2019-02-22T01:29:11.074Z,53.90
2019-02-22T01:31:41.543Z,53.90
2019-02-22T01:34:12.044Z,53.90
2019-02-22T01:36:42.637Z,53.90
2019-02-22T01:39:13.303Z,53.90
2019-02-22T01:41:43.813Z,53.90
2019-02-22T01:44:23.924Z,53.90
2019-02-22T01:46:54.376Z,54.00
2019-02-22T01:49:25.135Z,54.10
2019-02-22T01:51:55.864Z,54.00
2019-02-22T01:54:26.703Z,54.10
2019-02-22T01:56:57.375Z,54.10
2019-02-22T01:59:28.005Z,54.30
2019-02-22T02:01:58.692Z,54.20
2019-02-22T02:04:30.154Z,54.20
2019-02-22T02:07:00.804Z,54.10
2019-02-22T02:09:31.294Z,54.10
2019-02-22T02:12:02.191Z,54.10
2019-02-22T02:14:32.869Z,54.10
2019-02-22T02:17:03.565Z,54.10
2019-02-22T02:19:34.185Z,54.20
2019-02-22T02:22:04.906Z,54.20
2019-02-22T02:24:35.521Z,54.20
2019-02-22T02:27:06.083Z,54.20
2019-02-22T02:29:36.695Z,54.10
2019-02-22T02:32:07.323Z,54.20
2019-02-22T02:34:37.928Z,54.10
2019-02-22T02:37:08.726Z,54.10
2019-02-22T02:39:39.405Z,54.10
2019-02-22T02:42:09.960Z,54.20
2019-02-22T02:44:40.705Z,54.10
2019-02-22T02:47:11.334Z,54.70
2019-02-22T02:49:41.830Z,54.10
2019-02-22T02:52:12.652Z,54.00
2019-02-22T02:54:43.218Z,54.00
2019-02-22T02:57:13.925Z,54.00
2019-02-22T02:59:44.777Z,54.00
2019-02-22T03:02:25.144Z,54.00
2019-02-22T03:04:55.894Z,54.00
2019-02-22T03:07:46.523Z,54.00
2019-02-22T03:10:17.133Z,54.60
2019-02-22T03:12:47.928Z,54.20
2019-02-22T03:15:19.513Z,54.10
2019-02-22T03:17:50.143Z,54.10
2019-02-22T03:20:20.777Z,54.10
2019-02-22T03:22:51.689Z,54.20
2019-02-22T03:25:22.453Z,54.20
2019-02-22T03:27:52.982Z,54.20
2019-02-22T03:30:23.519Z,54.20
2019-02-22T03:32:54.121Z,54.20
2019-02-22T03:35:24.770Z,54.20
2019-02-22T03:37:55.528Z,54.30
2019-02-22T03:40:26.047Z,54.30
2019-02-22T03:42:56.764Z,54.20
2019-02-22T03:45:27.424Z,54.20
2019-02-22T03:47:58.174Z,54.20
2019-02-22T03:50:28.775Z,54.20
2019-02-22T03:53:05.961Z,54.10
2019-02-22T03:55:36.852Z,54.10
2019-02-22T03:58:07.655Z,54.20
2019-02-22T04:00:38.332Z,54.20
2019-02-22T04:03:08.921Z,54.20
2019-02-22T04:05:39.637Z,54.10
2019-02-22T04:08:10.222Z,54.10
2019-02-22T04:10:40.862Z,54.20
2019-02-22T04:13:11.622Z,54.20
2019-02-22T04:15:42.190Z,54.20
2019-02-22T04:18:16.413Z,54.20
2019-02-22T04:20:46.910Z,54.20
2019-02-22T04:23:17.713Z,54.30
2019-02-22T04:25:48.168Z,54.20
2019-02-22T04:32:18.909Z,54.20
2019-02-22T04:34:49.514Z,54.20
2019-02-22T04:37:20.209Z,54.20
2019-02-22T04:39:50.859Z,54.20
2019-02-22T04:42:21.570Z,54.20
2019-02-22T04:44:52.882Z,54.20
2019-02-22T04:47:23.288Z,54.20
2019-02-22T04:49:53.986Z,54.20
2019-02-22T04:52:24.721Z,54.20
2019-02-22T04:54:55.416Z,54.20
2019-02-22T04:57:26.122Z,54.20
2019-02-22T04:59:56.806Z,54.20
2019-02-22T05:02:27.432Z,54.20
2019-02-22T05:04:58.094Z,54.10
2019-02-22T05:07:29.035Z,54.10
2019-02-22T05:09:59.836Z,54.20
2019-02-22T05:12:30.514Z,54.40
2019-02-22T05:15:11.801Z,54.20
2019-02-22T05:17:35.735Z,54.20
2019-02-22T05:20:06.686Z,54.20
2019-02-22T05:22:37.452Z,54.20
2019-02-22T05:25:08.557Z,54.10
2019-02-22T05:27:39.356Z,54.00
2019-02-22T05:30:10.197Z,54.00
2019-02-22T05:32:40.740Z,54.00
2019-02-22T05:35:11.573Z,54.00
2019-02-22T05:37:42.373Z,54.00
2019-02-22T05:40:13.058Z,54.00
2019-02-22T05:42:43.885Z,54.00
2019-02-22T05:45:14.470Z,54.00
2019-02-22T05:47:45.147Z,54.00
2019-02-22T05:50:15.686Z,54.00
2019-02-22T05:52:46.423Z,54.00
2019-02-22T05:55:17.148Z,53.90
2019-02-22T05:57:47.891Z,53.90
2019-02-22T06:00:19.184Z,53.90
2019-02-22T06:02:49.983Z,54.00
2019-02-22T06:05:20.610Z,54.00
2019-02-22T06:07:51.283Z,54.00
2019-02-22T06:10:21.980Z,53.90
2019-02-22T06:12:52.957Z,53.80
2019-02-22T06:15:23.507Z,54.10
2019-02-22T06:17:54.358Z,54.60
2019-02-22T06:20:24.835Z,57.70
2019-02-22T06:22:55.526Z,61.20
2019-02-22T06:25:26.316Z,61.80
2019-02-22T06:27:57.013Z,62.50
2019-02-22T06:30:27.625Z,63.40
2019-02-22T06:32:58.287Z,63.50
2019-02-22T06:35:29.024Z,60.90
2019-02-22T06:37:59.772Z,59.80
2019-02-22T06:40:30.454Z,59.80
2019-02-22T06:43:01.201Z,59.00
2019-02-22T06:45:31.849Z,59.60
2019-02-22T06:48:02.437Z,62.20
2019-02-22T06:50:33.983Z,61.30
2019-02-22T06:53:06.060Z,62.00
2019-02-22T06:55:36.845Z,62.20
2019-02-22T06:58:07.461Z,62.40
2019-02-22T07:00:38.224Z,61.70
2019-02-22T07:03:08.845Z,61.40
2019-02-22T07:05:39.358Z,61.20
2019-02-22T07:08:10.138Z,60.40
2019-02-22T07:10:58.644Z,58.80
2019-02-22T07:13:30.061Z,57.70
2019-02-22T07:16:01.644Z,54.80
2019-02-22T07:18:33.238Z,53.20
2019-02-22T07:21:04.673Z,51.10
2019-02-22T07:23:37.505Z,50.10
2019-02-22T07:26:08.779Z,48.40
2019-02-22T07:28:40.385Z,48.10
2019-02-22T07:31:11.842Z,46.60
2019-02-22T07:33:43.107Z,48.10
2019-02-22T07:36:14.396Z,48.60
2019-02-22T07:38:45.726Z,48.80
2019-02-22T07:41:17.111Z,45.00
2019-02-22T07:43:48.461Z,45.90
2019-02-22T07:46:19.975Z,46.00
2019-02-22T07:48:51.230Z,52.00
2019-02-22T07:51:22.918Z,47.10
2019-02-22T07:53:54.480Z,44.00
2019-02-22T07:56:25.671Z,43.60
2019-02-22T07:58:57.046Z,44.20
2019-02-22T08:01:28.237Z,45.40
2019-02-22T08:03:59.498Z,46.10
2019-02-22T08:06:31.083Z,45.30
2019-02-22T08:09:02.276Z,45.90
2019-02-22T08:11:33.880Z,46.20
2019-02-22T08:14:04.444Z,43.50
2019-02-22T08:16:35.225Z,47.50
2019-02-22T08:19:05.800Z,45.70
2019-02-22T08:21:36.525Z,46.00
2019-02-22T08:24:07.042Z,46.20
2019-02-22T08:26:37.811Z,45.90
2019-02-22T08:29:08.626Z,46.50
2019-02-22T08:31:39.254Z,48.90
2019-02-22T08:34:09.996Z,49.00
2019-02-22T08:36:40.701Z,49.50
2019-02-22T08:39:11.322Z,49.80
2019-02-22T08:41:42.063Z,50.20
2019-02-22T08:44:12.690Z,50.60
2019-02-22T08:46:43.190Z,50.80
2019-02-22T08:49:13.886Z,53.70
2019-02-22T08:51:44.719Z,53.90
2019-02-22T08:54:15.560Z,51.60
2019-02-22T08:56:46.448Z,50.10
2019-02-22T08:59:17.042Z,52.30
2019-02-22T09:01:47.647Z,48.10
2019-02-22T09:04:18.561Z,47.60
2019-02-22T09:06:49.226Z,47.70
2019-02-22T09:09:19.884Z,47.40
2019-02-22T09:11:50.378Z,47.30
2019-02-22T09:14:21.527Z,47.30
2019-02-22T09:16:52.465Z,47.20
2019-02-22T09:19:23.124Z,47.00
2019-02-22T09:21:53.915Z,46.90
2019-02-22T09:24:24.456Z,46.80
2019-02-22T09:26:55.097Z,46.60
2019-02-22T09:29:25.691Z,46.60
2019-02-22T09:31:56.280Z,46.60
2019-02-22T09:34:26.996Z,46.50
2019-02-22T09:36:57.867Z,46.50
2019-02-22T09:39:28.485Z,46.30
2019-02-22T09:41:59.193Z,46.60
2019-02-22T09:44:29.722Z,46.60
2019-02-22T09:47:00.465Z,46.60
2019-02-22T09:49:31.083Z,46.60
2019-02-22T09:52:01.761Z,46.50
2019-02-22T09:54:32.259Z,46.40
2019-02-22T09:57:02.820Z,46.40
2019-02-22T09:59:33.408Z,46.20
2019-02-22T10:02:04.214Z,46.30
2019-02-22T10:04:34.927Z,46.60
2019-02-22T10:07:05.640Z,46.40
2019-02-22T10:09:36.477Z,46.80
2019-02-22T10:12:07.451Z,47.10
2019-02-22T10:14:38.206Z,47.40
2019-02-22T10:17:08.794Z,47.80
2019-02-22T10:19:39.303Z,47.90
2019-02-22T10:22:09.754Z,47.70
2019-02-22T10:24:40.313Z,48.00
2019-02-22T10:27:12.134Z,48.00
2019-02-22T10:29:43.053Z,47.90
2019-02-22T10:32:15.908Z,47.70
2019-02-22T10:34:46.086Z,48.00
2019-02-22T10:37:16.990Z,47.90
2019-02-22T10:39:47.551Z,48.00
2019-02-22T10:42:18.373Z,47.90
2019-02-22T10:44:48.898Z,47.60
2019-02-22T10:47:19.858Z,47.50
2019-02-22T10:49:50.466Z,47.60
2019-02-22T10:52:21.095Z,47.80
2019-02-22T10:54:51.653Z,48.00
2019-02-22T10:57:22.433Z,47.70
2019-02-22T10:59:52.840Z,48.40
2019-02-22T11:02:23.540Z,48.30
2019-02-22T11:04:54.261Z,48.80
2019-02-22T11:07:24.844Z,48.50
2019-02-22T11:09:55.600Z,48.30
2019-02-22T11:12:26.419Z,48.50
2019-02-22T11:14:57.092Z,48.60
2019-02-22T11:17:27.825Z,48.30
2019-02-22T11:19:58.568Z,48.50
2019-02-22T11:22:30.110Z,48.70
2019-02-22T11:25:01.901Z,48.70
2019-02-22T11:27:32.675Z,49.00
2019-02-22T11:30:03.567Z,48.80
2019-02-22T11:32:34.569Z,48.90
2019-02-22T11:35:05.871Z,49.00
2019-02-22T11:37:36.766Z,49.00
2019-02-22T11:40:08.007Z,48.90
2019-02-22T11:42:38.705Z,49.20
2019-02-22T11:45:09.611Z,48.90
2019-02-22T11:47:40.432Z,49.00
2019-02-22T11:50:11.194Z,49.40
2019-02-22T11:52:41.733Z,48.80
2019-02-22T11:55:12.308Z,49.40
2019-02-22T11:57:43.044Z,49.70
2019-02-22T12:00:16.314Z,49.30
2019-02-22T12:02:47.330Z,49.00
2019-02-22T12:05:17.935Z,48.50
2019-02-22T12:07:48.567Z,48.60
2019-02-22T12:10:19.283Z,48.70
2019-02-22T12:12:50.158Z,49.00
2019-02-22T12:15:20.575Z,49.10
2019-02-22T12:17:51.386Z,49.00
2019-02-22T12:20:22.094Z,52.50
2019-02-22T12:22:53.033Z,51.30
2019-02-22T12:25:23.807Z,51.60
2019-02-22T12:27:54.456Z,51.10
2019-02-22T12:30:25.777Z,51.00
2019-02-22T12:32:56.729Z,50.70
2019-02-22T12:35:27.217Z,50.60
2019-02-22T12:37:57.769Z,50.30
2019-02-22T12:40:28.269Z,50.30
2019-02-22T12:42:58.999Z,50.30
2019-02-22T12:45:29.564Z,50.30
2019-02-22T12:48:00.027Z,50.20
2019-02-22T12:50:31.282Z,50.00
2019-02-22T12:53:02.071Z,49.90
2019-02-22T12:55:32.891Z,50.20
2019-02-22T12:58:03.566Z,50.00
2019-02-22T13:00:34.196Z,50.00
2019-02-22T13:03:04.671Z,50.10
2019-02-22T13:05:35.443Z,50.00
2019-02-22T13:08:06.552Z,50.10
2019-02-22T13:10:37.158Z,50.10
2019-02-22T13:13:07.753Z,50.80
2019-02-22T13:15:38.694Z,51.60
2019-02-22T13:18:11.741Z,50.80
2019-02-22T13:20:43.031Z,51.00
2019-02-22T13:23:15.154Z,51.50
2019-02-22T13:25:46.606Z,50.80
2019-02-22T13:28:17.427Z,50.40
2019-02-22T13:30:48.312Z,50.60
2019-02-22T13:33:19.409Z,50.50
2019-02-22T13:35:51.356Z,50.60
2019-02-22T13:38:22.391Z,50.80
2019-02-22T13:40:53.473Z,50.70
2019-02-22T13:43:24.776Z,50.80
2019-02-22T13:45:55.977Z,50.40
2019-02-22T13:48:26.417Z,50.60
2019-02-22T13:50:57.118Z,50.70
2019-02-22T13:53:27.634Z,50.70
2019-02-22T13:55:58.217Z,50.80
2019-02-22T13:58:31.895Z,50.90
2019-02-22T14:01:02.829Z,50.70
2019-02-22T14:03:33.679Z,50.60
2019-02-22T14:06:04.418Z,50.70
2019-02-22T14:08:36.027Z,50.80
2019-02-22T14:11:06.510Z,50.10
2019-02-22T14:13:37.137Z,47.60
2019-02-22T14:16:07.702Z,46.80
2019-02-22T14:18:38.615Z,45.60
2019-02-22T14:21:09.387Z,47.20
2019-02-22T14:23:40.019Z,44.70
2019-02-22T14:26:10.821Z,40.90
2019-02-22T14:28:41.471Z,40.30
2019-02-22T14:31:12.198Z,42.50
2019-02-22T14:33:43.132Z,43.50
2019-02-22T14:36:13.813Z,41.30
2019-02-22T14:38:44.681Z,42.40
2019-02-22T14:41:15.312Z,42.20
2019-02-22T14:43:46.138Z,41.60
2019-02-22T14:46:25.506Z,41.70
2019-02-22T14:48:49.555Z,41.40
2019-02-22T14:51:20.215Z,42.20
2019-02-22T14:53:51.130Z,42.30
2019-02-22T14:56:21.749Z,43.40
2019-02-22T14:58:52.465Z,43.50
2019-02-22T15:01:23.749Z,42.10
2019-02-22T15:03:54.603Z,42.60
2019-02-22T15:06:26.082Z,44.20
2019-02-22T15:08:56.773Z,43.10
2019-02-22T15:11:27.541Z,43.80
2019-02-22T15:13:58.086Z,44.30
2019-02-22T15:16:46.914Z,44.40
2019-02-22T15:19:19.086Z,43.30
2019-02-22T15:21:49.869Z,43.70
2019-02-22T15:24:20.552Z,44.30
2019-02-22T15:26:53.779Z,44.90
2019-02-22T15:29:23.624Z,45.00
2019-02-22T15:31:54.430Z,44.30
2019-02-22T15:34:25.113Z,44.80
2019-02-22T15:36:55.785Z,45.00
2019-02-22T15:39:26.604Z,45.60
2019-02-22T15:41:57.250Z,45.00
2019-02-22T15:44:27.936Z,45.50
2019-02-22T15:46:58.930Z,45.60
2019-02-22T15:49:29.818Z,45.60
2019-02-22T15:52:00.286Z,45.60
2019-02-22T15:54:31.176Z,45.80
2019-02-22T15:57:01.601Z,46.30
2019-02-22T15:59:32.088Z,46.30
2019-02-22T16:02:02.682Z,46.80
2019-02-22T16:04:47.251Z,46.80
2019-02-22T16:07:18.149Z,46.20
2019-02-22T16:09:48.859Z,45.90
2019-02-22T16:12:19.352Z,46.10
2019-02-22T16:14:49.888Z,46.60
2019-02-22T16:17:20.609Z,46.90
2019-02-22T16:19:51.610Z,47.00
2019-02-22T16:22:22.315Z,47.20
2019-02-22T16:24:52.939Z,47.30
2019-02-22T16:27:23.632Z,47.30
2019-02-22T16:29:54.418Z,47.40
2019-02-22T16:32:26.829Z,47.40
2019-02-22T16:34:57.712Z,47.50
2019-02-22T16:37:28.767Z,47.60
2019-02-22T16:39:59.453Z,47.50
2019-02-22T16:42:30.151Z,47.70
2019-02-22T16:45:00.732Z,47.50
2019-02-22T16:47:39.550Z,47.70
2019-02-22T16:50:03.628Z,47.30
2019-02-22T16:52:34.425Z,47.50
2019-02-22T16:55:05.411Z,47.50
2019-02-22T16:57:36.102Z,47.10
2019-02-22T17:00:07.919Z,46.70
2019-02-22T17:02:38.756Z,46.30
2019-02-22T17:05:11.036Z,46.70
2019-02-22T17:07:41.661Z,47.00
2019-02-22T17:10:12.516Z,47.30
2019-02-22T17:12:43.133Z,47.50
2019-02-22T17:15:13.878Z,47.70
2019-02-22T17:17:44.770Z,47.80
2019-02-22T17:20:15.411Z,47.90
2019-02-22T17:22:45.930Z,48.20
2019-02-22T17:25:17.133Z,48.20
2019-02-22T17:27:48.096Z,48.10
2019-02-22T17:30:19.939Z,47.80
2019-02-22T17:32:52.390Z,47.90
2019-02-22T17:35:23.009Z,46.70
2019-02-22T17:37:53.668Z,44.90
2019-02-22T17:40:24.288Z,44.00
2019-02-22T17:42:54.822Z,44.50
2019-02-22T17:45:25.612Z,45.10
2019-02-22T17:47:56.466Z,44.50
2019-02-22T17:50:27.204Z,44.20
2019-02-22T17:52:57.895Z,43.40
2019-02-22T17:55:28.326Z,44.00
2019-02-22T17:57:59.156Z,44.60
2019-02-22T18:00:29.793Z,44.60
2019-02-22T18:03:01.544Z,45.00
2019-02-22T18:05:32.910Z,45.40
2019-02-22T18:08:05.675Z,45.10
2019-02-22T18:10:36.690Z,48.40
2019-02-22T18:13:08.649Z,48.20
2019-02-22T18:15:40.342Z,48.90
2019-02-22T18:18:13.923Z,49.50
2019-02-22T18:20:45.411Z,50.40
2019-02-22T18:23:16.884Z,49.50
2019-02-22T18:25:48.504Z,50.60
2019-02-22T18:28:19.636Z,50.70
2019-02-22T18:30:51.277Z,50.50
2019-02-22T18:33:22.759Z,50.40
2019-02-22T18:35:54.571Z,50.40
2019-02-22T18:38:25.822Z,50.40
2019-02-22T18:40:57.336Z,50.50
2019-02-22T18:43:28.562Z,50.20
2019-02-22T18:46:00.580Z,49.60
2019-02-22T18:48:31.503Z,49.40
2019-02-22T18:51:02.103Z,55.70
2019-02-22T18:53:32.879Z,55.60
2019-02-22T18:56:03.600Z,58.10
2019-02-22T18:58:34.117Z,58.60
2019-02-22T19:01:05.004Z,57.70
2019-02-22T19:03:36.329Z,58.20
2019-02-22T19:06:07.088Z,59.30
2019-02-22T19:08:37.678Z,60.20
2019-02-22T19:11:08.524Z,60.50
2019-02-22T19:13:39.188Z,58.70
2019-02-22T19:16:09.891Z,59.40
2019-02-22T19:18:41.602Z,59.00
2019-02-22T19:21:12.606Z,59.00
2019-02-22T19:23:43.970Z,58.90
2019-02-22T19:26:14.799Z,58.20
2019-02-22T19:28:45.444Z,59.30
2019-02-22T19:31:16.029Z,60.30
2019-02-22T19:33:49.583Z,60.70
2019-02-22T19:36:19.966Z,63.70
2019-02-22T19:38:51.367Z,61.40
2019-02-22T19:41:23.041Z,59.30
2019-02-22T19:43:54.008Z,59.30
2019-02-22T19:46:24.854Z,59.10
2019-02-22T19:48:56.686Z,60.30
2019-02-22T19:51:28.404Z,59.90
2019-02-22T19:53:59.555Z,60.00
2019-02-22T19:56:30.763Z,59.40
2019-02-22T19:59:02.839Z,60.80
2019-02-22T20:01:33.689Z,61.30
2019-02-22T20:04:04.564Z,61.50
2019-02-22T20:06:36.327Z,61.90
2019-02-22T20:09:08.468Z,59.40
2019-02-22T20:11:39.715Z,58.90
2019-02-22T20:14:11.224Z,58.10
2019-02-22T20:16:42.520Z,57.10
2019-02-22T20:19:13.350Z,56.20
2019-02-22T20:21:43.871Z,56.00
2019-02-22T20:24:14.591Z,55.70
2019-02-22T20:26:45.636Z,55.00
2019-02-22T20:29:16.805Z,55.30
2019-02-22T20:31:47.999Z,54.90
2019-02-22T20:34:18.782Z,55.10
2019-02-22T20:36:49.419Z,55.10
2019-02-22T20:39:20.130Z,54.70
2019-02-22T20:41:50.870Z,55.00
2019-02-22T20:44:23.670Z,54.80
2019-02-22T20:46:54.222Z,54.40
2019-02-22T20:49:25.031Z,53.90
2019-02-22T20:51:55.703Z,53.40
2019-02-22T20:54:27.018Z,53.40
2019-02-22T20:56:57.801Z,53.30
2019-02-22T20:59:29.148Z,52.80
2019-02-22T21:02:00.307Z,52.60
2019-02-22T21:04:30.942Z,52.80
2019-02-22T21:07:01.683Z,52.60
2019-02-22T21:09:32.267Z,52.60
2019-02-22T21:12:02.950Z,52.60
2019-02-22T21:14:33.583Z,52.50
2019-02-22T21:17:04.621Z,52.50
2019-02-22T21:19:37.998Z,52.30
2019-02-22T21:22:08.848Z,52.50
2019-02-22T21:24:39.698Z,52.40
2019-02-22T21:27:10.414Z,52.20
2019-02-22T21:29:41.349Z,52.10
2019-02-22T21:32:12.493Z,51.90
2019-02-22T21:34:43.132Z,51.90
2019-02-22T21:37:13.871Z,51.60
2019-02-22T21:39:45.003Z,51.50
2019-02-22T21:42:20.189Z,51.50
2019-02-22T21:44:48.985Z,51.40
2019-02-22T21:47:19.515Z,51.20
2019-02-22T21:49:50.514Z,51.30
2019-02-22T21:52:21.169Z,51.40
2019-02-22T21:54:52.004Z,51.30
2019-02-22T21:57:22.517Z,51.30
2019-02-22T21:59:53.094Z,51.30
2019-02-22T22:02:23.588Z,51.40
2019-02-22T22:04:54.349Z,51.20
2019-02-22T22:07:24.765Z,51.20
2019-02-22T22:09:55.608Z,51.30
2019-02-22T22:12:26.048Z,51.10
2019-02-22T22:14:56.623Z,51.20
2019-02-22T22:17:27.645Z,51.00
2019-02-22T22:19:58.433Z,50.90
2019-02-22T22:22:29.134Z,50.80
2019-02-22T22:25:00.309Z,50.80
2019-02-22T22:27:30.867Z,50.80
2019-02-22T22:30:01.668Z,50.80
2019-02-22T22:32:32.404Z,50.80
2019-02-22T22:35:03.330Z,50.80
2019-02-22T22:37:34.233Z,50.80
2019-02-22T22:40:05.201Z,50.70
2019-02-22T22:42:37.965Z,50.80
2019-02-22T22:45:09.453Z,50.80
2019-02-22T22:47:40.150Z,50.80
2019-02-22T22:50:12.319Z,50.80
2019-02-22T22:52:43.072Z,50.70
2019-02-22T22:55:13.828Z,50.80
2019-02-22T22:57:44.627Z,50.80
2019-02-22T23:00:58.898Z,50.90
2019-02-22T23:03:29.520Z,50.80
2019-02-22T23:06:00.172Z,50.80
2019-02-22T23:08:30.823Z,50.80
2019-02-22T23:11:01.719Z,50.90
2019-02-22T23:13:32.477Z,50.90
2019-02-22T23:16:03.145Z,50.80
2019-02-22T23:18:33.915Z,50.90
2019-02-22T23:21:04.870Z,50.90
2019-02-22T23:23:35.728Z,50.90
2019-02-22T23:26:06.239Z,50.90
2019-02-22T23:28:36.981Z,50.90
2019-02-22T23:31:07.693Z,50.90
2019-02-22T23:33:38.504Z,50.90
2019-02-22T23:36:09.204Z,51.50
2019-02-22T23:38:39.901Z,51.00
2019-02-22T23:41:11.381Z,51.20
2019-02-22T23:43:42.179Z,51.10
2019-02-22T23:46:13.077Z,51.10
2019-02-22T23:48:43.687Z,51.00
2019-02-22T23:51:14.491Z,51.10
2019-02-22T23:53:45.111Z,50.90
2019-02-22T23:56:15.877Z,51.10
2019-02-22T23:58:47.072Z,51.10
